Aviation Digital Data Service (ADDS)

Output produced by METARs form (1730 UTC 03 June 2020)
found at http://www.aviationweather.gov/metar/data/
 
LETO 031700Z 23017KT 200V280 9999 FEW055TCU SCT065 27/12 Q1006 NOSIG
TAF LETO 031700Z 0318/0418 23014KT 9999 SCT050 TX27/0318Z TN12/0405Z 
     TEMPO 0318/0320 24015G32KT 
     TEMPO 0318/0320 28015KT 
     PROB40 
     TEMPO 0318/0408 SHRA RA SCT040TCU 
     PROB30 
     TEMPO 0320/0406 VRB15G25KT 3000 TS SHRA SCT030CB 
     TEMPO 0407/0410 28012KT 
     BECMG 0408/0410 32015KT 
     TEMPO 0409/0418 34018G32KT
       
LEZG 031707Z 27010KT 240V300 4000 TSRA BR FEW012 BKN065CB 18/17 Q1008
TAF LEZG 031700Z 0318/0418 30010KT 9999 FEW050 TX23/0415Z TN14/0406Z 
     TEMPO 0318/0405 4000 TSRA SCT040CB BKN050 
     PROB30 0410/0417 4000 TSRA SCT030CB BKN040 
     BECMG 0410/0412 31015KT 
     TEMPO 0411/0418 32020G30KT
       
LERT 031700Z 24014KT CAVOK 23/18 Q1011 NOSIG
TAF LERT 031700Z 0318/0403 27014KT CAVOK
       
LELC 031700Z 21013KT 180V240 9999 FEW020 25/18 Q1005 NOSIG
TAF LELC 031700Z 0318/0418 20012KT 9999 FEW040 TX30/0413Z TN18/0406Z 
     BECMG 0320/0322 28006KT 
     PROB40 
     TEMPO 0412/0418 29015G25KT
       
LEAB 031700Z 26017KT CAVOK 29/09 Q1007 NOSIG
TAF LEAB 031700Z 0318/0403 28014KT CAVOK 
     TEMPO 0318/0319 28017G27KT
       
LEBZ 031700Z AUTO 26013KT 240V300 CAVOK 28/12 Q1009
TAF LEBZ 031700Z 0318/0418 26009KT CAVOK TX28/0415Z TN16/0405Z 
     PROB30 
     TEMPO 0406/0413 4000 RA BR
       
LEMO 031700Z 24012KT 190V270 CAVOK 26/11 Q1010 NOSIG
TAF LEMO 031700Z 0318/0403 23009KT CAVOK 
     PROB30 
     TEMPO 0318/0320 24015G25KT
       
LESA 031700Z AUTO 29015KT 260V320 CAVOK 23/11 Q1009
TAF LESA 031700Z 0318/0418 30012KT 9999 FEW035 TX23/0415Z TN13/0405Z 
     TEMPO 0318/0320 27018G30KT 
     PROB40 
     TEMPO 0318/0324 FEW040TCU 
     PROB40 
     TEMPO 0318/0322 SHRA SCT040TCU 
     PROB40 0322/0406 BKN010 
     BECMG 0407/0408 32017KT 
     TEMPO 0410/0418 32018G28KT
       
GCLP 031700Z 02009KT 350V060 9999 FEW025 SCT035 25/19 Q1013 NOSIG
TAF GCLP 031400Z 0315/0415 04008KT 9999 SCT030 TX26/0414Z TN20/0406Z 
     BECMG 0409/0411 15012KT
       
LIED 031655Z 14011KT 9999 FEW030 24/17 Q1009 RMK SCT SCT200 VIS MIN 9999 WIND THR35 14013KT WIND THR17 /////KT BLU
TAF LIED 031400Z 0315/0324 15005KT 9999 FEW030
       
LIPR 031720Z 09005KT CAVOK 23/15 Q1005
TAF LIPR 031700Z 0318/0403 04010KT 9999 FEW030